createdAt,value
2023-02-18T00:04:55.399Z,40.85
2023-02-18T00:10:57.821Z,32.30
2023-02-18T00:17:00.161Z,25.60
2023-02-18T00:23:03.580Z,33.30
2023-02-18T00:29:05.687Z,33.78
2023-02-18T00:35:08.504Z,29.42
2023-02-18T00:41:10.877Z,36.60
2023-02-18T00:47:13.529Z,38.05
2023-02-18T00:59:18.473Z,31.88
2023-02-18T01:05:21.946Z,22.95
2023-02-18T01:11:24.397Z,26.63
2023-02-18T01:17:26.937Z,27.67
2023-02-18T01:23:29.855Z,26.58
2023-02-18T01:29:31.907Z,32.78
2023-02-18T01:35:34.598Z,23.40
2023-02-18T01:47:39.018Z,36.58
2023-02-18T01:53:59.295Z,27.33
2023-02-18T02:00:12.420Z,35.40
2023-02-18T02:06:20.637Z,35.80
2023-02-18T02:13:01.100Z,33.30
2023-02-18T02:19:27.805Z,28.30
2023-02-18T02:26:22.427Z,35.42
2023-02-18T02:39:16.461Z,30.23
2023-02-18T02:45:29.448Z,39.08
2023-02-18T02:57:51.190Z,49.30
2023-02-18T03:04:17.741Z,45.50
2023-02-18T03:10:23.830Z,44.28
2023-02-18T03:16:27.798Z,39.80
2023-02-18T03:22:35.735Z,48.35
2023-02-18T03:28:39.052Z,44.17
2023-02-18T03:34:46.157Z,52.25
2023-02-18T03:40:48.933Z,45.85
2023-02-18T03:46:51.246Z,47.10
2023-02-18T03:52:54.771Z,46.83
2023-02-18T03:58:57.010Z,50.70
2023-02-18T04:04:59.250Z,47.90
2023-02-18T04:11:02.276Z,39.40
2023-02-18T04:17:04.585Z,41.03
2023-02-18T04:23:06.887Z,53.70
2023-02-18T04:29:09.036Z,35.38
2023-02-18T04:35:11.235Z,36.10
2023-02-18T04:41:13.631Z,37.83
2023-02-18T04:47:16.049Z,46.30
2023-02-18T04:53:18.313Z,39.38
2023-02-18T04:59:20.649Z,42.92
2023-02-18T05:05:22.933Z,33.22
2023-02-18T05:11:25.305Z,33.45
2023-02-18T05:17:27.506Z,38.95
2023-02-18T05:23:29.766Z,30.95
2023-02-18T05:29:31.958Z,31.80
2023-02-18T05:35:34.165Z,32.72
2023-02-18T05:41:36.399Z,28.07
2023-02-18T05:47:38.870Z,33.22
2023-02-18T05:53:41.653Z,29.45
2023-02-18T06:05:45.966Z,30.13
2023-02-18T06:11:48.587Z,37.00
2023-02-18T06:17:51.345Z,46.33
2023-02-18T06:29:55.599Z,23.50
2023-02-18T06:36:01.798Z,29.70
2023-02-18T06:42:04.332Z,30.40
2023-02-18T06:48:06.606Z,25.30
2023-02-18T06:54:08.749Z,25.77
2023-02-18T07:00:11.245Z,24.73
2023-02-18T07:06:13.413Z,41.97
2023-02-18T07:12:19.939Z,32.30
2023-02-18T07:18:22.450Z,27.85
2023-02-18T07:24:24.802Z,25.90
2023-02-18T07:30:26.968Z,31.10
2023-02-18T07:36:29.574Z,30.00
2023-02-18T07:42:32.418Z,30.92
2023-02-18T07:48:34.674Z,29.92
2023-02-18T07:54:36.917Z,33.13
2023-02-18T08:00:39.953Z,26.00
2023-02-18T08:06:46.325Z,28.17
2023-02-18T08:12:48.470Z,32.28
2023-02-18T08:18:52.045Z,30.70
2023-02-18T08:24:57.860Z,25.40
2023-02-18T08:31:00.475Z,27.80
2023-02-18T08:37:03.237Z,25.13
2023-02-18T08:43:05.450Z,24.30
2023-02-18T08:49:08.309Z,31.02
2023-02-18T09:01:14.120Z,35.22
2023-02-18T09:07:16.388Z,30.67
2023-02-18T09:13:21.784Z,31.75
2023-02-18T09:19:23.999Z,32.80
2023-02-18T09:25:26.456Z,29.42
2023-02-18T09:31:29.398Z,27.75
2023-02-18T09:37:32.010Z,25.90
2023-02-18T09:43:38.548Z,26.80
2023-02-18T09:49:44.224Z,27.42
2023-02-18T09:55:46.790Z,31.40
2023-02-18T10:01:55.107Z,22.80
2023-02-18T10:08:03.442Z,26.33
2023-02-18T10:14:11.926Z,28.85
2023-02-18T10:20:20.765Z,28.75
2023-02-18T10:26:23.347Z,30.17
2023-02-18T10:32:36.418Z,31.73
2023-02-18T10:39:03.320Z,26.30
2023-02-18T10:45:16.699Z,22.10
2023-02-18T10:51:31.297Z,33.67
2023-02-18T10:57:34.387Z,37.97
2023-02-18T11:03:51.569Z,30.08
2023-02-18T11:09:57.060Z,30.60
2023-02-18T11:16:05.853Z,20.17
2023-02-18T11:22:21.792Z,49.30
2023-02-18T11:28:26.835Z,22.80
2023-02-18T11:34:33.158Z,27.73
2023-02-18T11:40:36.915Z,21.00
2023-02-18T11:46:39.362Z,23.05
2023-02-18T11:52:44.578Z,21.33
2023-02-18T11:58:48.935Z,31.52
2023-02-18T12:04:56.755Z,22.55
2023-02-18T12:11:08.274Z,19.98
2023-02-18T12:17:10.731Z,20.63
2023-02-18T12:23:39.426Z,16.42
2023-02-18T12:29:54.209Z,25.20
2023-02-18T12:35:56.599Z,22.23
2023-02-18T12:42:20.688Z,28.38
2023-02-18T12:48:39.343Z,25.67
2023-02-18T12:54:44.770Z,27.27
2023-02-18T13:01:08.588Z,19.15
2023-02-18T13:07:23.820Z,19.65
2023-02-18T13:13:37.626Z,18.73
2023-02-18T13:19:53.159Z,15.18
2023-02-18T13:26:01.691Z,19.02
2023-02-18T13:32:04.266Z,20.23
2023-02-18T13:38:25.091Z,17.63
2023-02-18T13:44:27.213Z,12.93
2023-02-18T13:50:41.083Z,19.35
2023-02-18T13:57:14.363Z,11.57
2023-02-18T14:03:34.503Z,9.80
2023-02-18T14:09:39.501Z,23.63
2023-02-18T14:15:51.172Z,18.20
2023-02-18T14:22:25.304Z,21.90
2023-02-18T14:28:39.718Z,13.93
2023-02-18T14:34:52.282Z,15.27
2023-02-18T14:41:26.373Z,13.43
2023-02-18T14:47:46.982Z,12.00
2023-02-18T14:53:53.110Z,13.45
2023-02-18T15:00:00.066Z,22.77
2023-02-18T15:06:02.294Z,13.52
2023-02-18T15:12:09.904Z,12.43
2023-02-18T15:18:38.327Z,26.48
2023-02-18T15:24:40.680Z,13.15
2023-02-18T15:30:45.727Z,9.93
2023-02-18T15:36:51.771Z,14.82
2023-02-18T15:42:58.273Z,14.18
2023-02-18T15:49:01.799Z,11.43
2023-02-18T15:55:12.303Z,21.70
2023-02-18T16:01:28.065Z,14.30
2023-02-18T16:07:49.763Z,18.45
2023-02-18T16:13:51.981Z,23.23
2023-02-18T16:20:24.017Z,17.67
2023-02-18T16:26:47.020Z,19.40
2023-02-18T16:32:49.636Z,18.93
2023-02-18T16:38:52.354Z,24.45
2023-02-18T16:44:54.993Z,15.38
2023-02-18T16:51:00.067Z,18.65
2023-02-18T16:57:02.352Z,16.98
2023-02-18T17:03:05.906Z,30.45
2023-02-18T17:09:22.766Z,14.38
2023-02-18T17:15:34.976Z,17.60
2023-02-18T17:21:37.410Z,15.70
2023-02-18T17:27:39.613Z,18.02
2023-02-18T17:33:43.170Z,16.20
2023-02-18T17:39:45.480Z,13.80
2023-02-18T17:45:51.536Z,14.30
2023-02-18T17:51:53.988Z,20.25
2023-02-18T17:57:56.763Z,17.85
2023-02-18T18:03:59.117Z,20.83
2023-02-18T18:10:01.560Z,36.78
2023-02-18T18:16:04.092Z,48.00
2023-02-18T18:22:08.471Z,22.83
2023-02-18T18:28:10.837Z,21.42
2023-02-18T18:34:16.469Z,15.60
2023-02-18T18:40:20.460Z,17.42
2023-02-18T18:46:22.932Z,15.82
2023-02-18T18:52:25.188Z,17.88
2023-02-18T18:58:28.088Z,16.92
2023-02-18T19:04:30.409Z,22.45
2023-02-18T19:10:36.057Z,20.20
2023-02-18T19:16:43.036Z,24.25
2023-02-18T19:22:45.414Z,19.42
2023-02-18T19:28:47.785Z,17.73
2023-02-18T19:34:50.121Z,18.85
2023-02-18T19:40:54.265Z,12.00
2023-02-18T19:46:56.743Z,11.40
2023-02-18T19:52:59.624Z,22.58
2023-02-18T19:59:05.196Z,26.52
2023-02-18T20:05:09.111Z,35.50
2023-02-18T20:11:11.555Z,13.77
2023-02-18T20:17:14.092Z,13.77
2023-02-18T20:23:16.648Z,20.85
2023-02-18T20:29:22.086Z,16.27
2023-02-18T20:35:24.449Z,13.60
2023-02-18T20:41:26.739Z,10.65
2023-02-18T20:47:28.832Z,10.90
2023-02-18T20:53:36.499Z,20.73
2023-02-18T20:59:38.750Z,10.32
2023-02-18T21:05:40.941Z,18.17
2023-02-18T21:11:44.481Z,10.07
2023-02-18T21:17:46.813Z,14.50
2023-02-18T21:23:49.014Z,12.25
2023-02-18T21:29:51.367Z,16.73
2023-02-18T21:35:53.944Z,14.43
2023-02-18T21:48:19.666Z,16.15
2023-02-18T21:54:37.135Z,13.65
2023-02-18T22:00:39.318Z,18.48
2023-02-18T22:06:41.957Z,14.40
2023-02-18T22:12:44.006Z,20.67
2023-02-18T22:18:46.113Z,17.97
2023-02-18T22:24:50.718Z,10.98
2023-02-18T22:30:52.763Z,15.93
2023-02-18T22:36:55.058Z,20.73
2023-02-18T22:42:57.351Z,24.65
2023-02-18T22:49:00.180Z,20.48
2023-02-18T23:01:06.334Z,17.33
2023-02-18T23:07:08.538Z,20.77
2023-02-18T23:13:10.664Z,17.70
2023-02-18T23:19:12.852Z,10.87
2023-02-18T23:25:16.380Z,17.00
2023-02-18T23:31:25.573Z,21.83
2023-02-18T23:37:46.489Z,17.38
2023-02-18T23:43:49.477Z,14.82
2023-02-18T23:56:07.790Z,19.30
